sensor_id;sensor_type;location;lat;lon;timestamp;P1;durP1;ratioP1;P2;durP2;ratioP2
43070;SDS011;36278;47.952;21.714;2022-11-15T00:00:16;62.40;;;17.17;;
43070;SDS011;36278;47.952;21.714;2022-11-15T00:02:42;51.00;;;17.07;;
43070;SDS011;36278;47.952;21.714;2022-11-15T00:05:07;80.33;;;17.83;;
43070;SDS011;36278;47.952;21.714;2022-11-15T00:07:33;61.07;;;16.33;;
43070;SDS011;36278;47.952;21.714;2022-11-15T00:09:58;37.20;;;15.87;;
43070;SDS011;36278;47.952;21.714;2022-11-15T00:12:23;40.00;;;14.67;;
43070;SDS011;36278;47.952;21.714;2022-11-15T00:14:49;40.67;;;15.73;;
43070;SDS011;36278;47.952;21.714;2022-11-15T00:17:14;50.23;;;14.70;;
43070;SDS011;36278;47.952;21.714;2022-11-15T00:19:39;62.17;;;14.50;;
43070;SDS011;36278;47.952;21.714;2022-11-15T00:22:05;52.60;;;15.53;;
43070;SDS011;36278;47.952;21.714;2022-11-15T00:24:30;30.73;;;15.00;;
43070;SDS011;36278;47.952;21.714;2022-11-15T00:26:56;37.13;;;14.13;;
43070;SDS011;36278;47.952;21.714;2022-11-15T00:29:21;59.00;;;14.70;;
43070;SDS011;36278;47.952;21.714;2022-11-15T00:31:47;38.97;;;14.20;;
43070;SDS011;36278;47.952;21.714;2022-11-15T00:34:13;72.00;;;16.97;;
43070;SDS011;36278;47.952;21.714;2022-11-15T00:36:38;109.20;;;15.67;;
43070;SDS011;36278;47.952;21.714;2022-11-15T00:39:04;82.10;;;15.77;;
43070;SDS011;36278;47.952;21.714;2022-11-15T00:41:30;73.90;;;15.73;;
43070;SDS011;36278;47.952;21.714;2022-11-15T00:43:56;60.77;;;17.00;;
43070;SDS011;36278;47.952;21.714;2022-11-15T00:46:22;101.37;;;17.43;;
43070;SDS011;36278;47.952;21.714;2022-11-15T00:48:47;91.73;;;16.43;;
43070;SDS011;36278;47.952;21.714;2022-11-15T00:51:13;50.00;;;15.63;;
43070;SDS011;36278;47.952;21.714;2022-11-15T00:53:38;49.40;;;15.43;;
43070;SDS011;36278;47.952;21.714;2022-11-15T00:56:04;44.97;;;15.00;;
43070;SDS011;36278;47.952;21.714;2022-11-15T00:58:29;53.27;;;14.67;;
43070;SDS011;36278;47.952;21.714;2022-11-15T01:00:55;66.97;;;14.43;;
43070;SDS011;36278;47.952;21.714;2022-11-15T01:03:21;97.33;;;14.43;;
43070;SDS011;36278;47.952;21.714;2022-11-15T01:05:46;99.40;;;14.03;;
43070;SDS011;36278;47.952;21.714;2022-11-15T01:08:15;93.13;;;13.90;;
43070;SDS011;36278;47.952;21.714;2022-11-15T01:10:41;73.63;;;14.00;;
43070;SDS011;36278;47.952;21.714;2022-11-15T01:13:07;68.93;;;13.73;;
43070;SDS011;36278;47.952;21.714;2022-11-15T01:15:33;59.10;;;13.97;;
43070;SDS011;36278;47.952;21.714;2022-11-15T01:17:58;54.53;;;13.90;;
43070;SDS011;36278;47.952;21.714;2022-11-15T01:20:24;68.33;;;13.93;;
43070;SDS011;36278;47.952;21.714;2022-11-15T01:22:49;110.43;;;13.77;;
43070;SDS011;36278;47.952;21.714;2022-11-15T01:25:15;58.83;;;13.63;;
43070;SDS011;36278;47.952;21.714;2022-11-15T01:27:40;80.33;;;14.00;;
43070;SDS011;36278;47.952;21.714;2022-11-15T01:30:06;75.97;;;13.17;;
43070;SDS011;36278;47.952;21.714;2022-11-15T01:32:31;50.53;;;12.73;;
43070;SDS011;36278;47.952;21.714;2022-11-15T01:34:57;68.60;;;13.47;;
43070;SDS011;36278;47.952;21.714;2022-11-15T01:37:22;79.83;;;13.23;;
43070;SDS011;36278;47.952;21.714;2022-11-15T01:39:48;78.83;;;13.07;;
43070;SDS011;36278;47.952;21.714;2022-11-15T01:42:13;114.57;;;14.63;;
43070;SDS011;36278;47.952;21.714;2022-11-15T01:44:40;71.97;;;14.73;;
43070;SDS011;36278;47.952;21.714;2022-11-15T01:47:30;91.63;;;14.90;;
43070;SDS011;36278;47.952;21.714;2022-11-15T01:50:08;99.43;;;13.77;;
43070;SDS011;36278;47.952;21.714;2022-11-15T01:52:35;40.83;;;13.33;;
43070;SDS011;36278;47.952;21.714;2022-11-15T01:57:43;89.50;;;15.00;;
43070;SDS011;36278;47.952;21.714;2022-11-15T02:00:11;68.63;;;14.17;;
43070;SDS011;36278;47.952;21.714;2022-11-15T02:02:38;56.60;;;14.47;;
43070;SDS011;36278;47.952;21.714;2022-11-15T02:05:04;71.43;;;14.13;;
43070;SDS011;36278;47.952;21.714;2022-11-15T02:07:30;88.40;;;14.43;;
43070;SDS011;36278;47.952;21.714;2022-11-15T02:10:02;65.70;;;15.77;;
43070;SDS011;36278;47.952;21.714;2022-11-15T02:12:48;104.20;;;15.70;;
43070;SDS011;36278;47.952;21.714;2022-11-15T02:15:15;84.50;;;14.57;;
43070;SDS011;36278;47.952;21.714;2022-11-15T02:26:24;69.88;;;16.08;;
43070;SDS011;36278;47.952;21.714;2022-11-15T02:32:06;70.60;;;17.02;;
43070;SDS011;36278;47.952;21.714;2022-11-15T02:34:54;90.57;;;16.70;;
43070;SDS011;36278;47.952;21.714;2022-11-15T02:43:12;58.07;;;16.00;;
43070;SDS011;36278;47.952;21.714;2022-11-15T02:46:07;66.00;;;15.83;;
43070;SDS011;36278;47.952;21.714;2022-11-15T02:48:39;69.43;;;15.17;;
43070;SDS011;36278;47.952;21.714;2022-11-15T02:51:08;72.23;;;15.87;;
43070;SDS011;36278;47.952;21.714;2022-11-15T02:53:34;78.33;;;16.73;;
43070;SDS011;36278;47.952;21.714;2022-11-15T02:56:00;68.17;;;16.50;;
43070;SDS011;36278;47.952;21.714;2022-11-15T02:58:37;67.80;;;16.67;;
43070;SDS011;36278;47.952;21.714;2022-11-15T03:01:34;75.23;;;16.70;;
43070;SDS011;36278;47.952;21.714;2022-11-15T03:04:08;100.13;;;17.98;;
43070;SDS011;36278;47.952;21.714;2022-11-15T03:07:13;90.57;;;18.77;;
43070;SDS011;36278;47.952;21.714;2022-11-15T03:12:53;77.03;;;18.70;;
43070;SDS011;36278;47.952;21.714;2022-11-15T03:15:24;58.40;;;18.40;;
43070;SDS011;36278;47.952;21.714;2022-11-15T03:18:01;75.43;;;18.63;;
43070;SDS011;36278;47.952;21.714;2022-11-15T03:20:44;80.57;;;18.47;;
43070;SDS011;36278;47.952;21.714;2022-11-15T03:23:11;106.10;;;18.53;;
43070;SDS011;36278;47.952;21.714;2022-11-15T03:25:40;108.50;;;19.03;;
43070;SDS011;36278;47.952;21.714;2022-11-15T03:28:10;77.63;;;17.80;;
43070;SDS011;36278;47.952;21.714;2022-11-15T03:30:39;75.73;;;17.10;;
43070;SDS011;36278;47.952;21.714;2022-11-15T03:33:07;111.20;;;19.00;;
43070;SDS011;36278;47.952;21.714;2022-11-15T03:35:35;56.07;;;18.23;;
43070;SDS011;36278;47.952;21.714;2022-11-15T03:40:59;76.87;;;17.53;;
43070;SDS011;36278;47.952;21.714;2022-11-15T03:43:30;80.63;;;18.80;;
43070;SDS011;36278;47.952;21.714;2022-11-15T03:46:38;70.47;;;18.63;;
43070;SDS011;36278;47.952;21.714;2022-11-15T03:49:15;55.47;;;17.93;;
43070;SDS011;36278;47.952;21.714;2022-11-15T03:51:47;59.07;;;17.40;;
43070;SDS011;36278;47.952;21.714;2022-11-15T03:54:12;76.07;;;18.80;;
43070;SDS011;36278;47.952;21.714;2022-11-15T03:56:38;61.70;;;18.63;;
43070;SDS011;36278;47.952;21.714;2022-11-15T03:59:04;50.20;;;17.50;;
43070;SDS011;36278;47.952;21.714;2022-11-15T04:01:29;61.60;;;19.27;;
43070;SDS011;36278;47.952;21.714;2022-11-15T04:03:55;82.30;;;18.10;;
43070;SDS011;36278;47.952;21.714;2022-11-15T04:06:20;55.23;;;18.90;;
43070;SDS011;36278;47.952;21.714;2022-11-15T04:08:46;105.57;;;19.13;;
43070;SDS011;36278;47.952;21.714;2022-11-15T04:11:11;37.90;;;18.23;;
43070;SDS011;36278;47.952;21.714;2022-11-15T04:13:37;58.33;;;17.60;;
43070;SDS011;36278;47.952;21.714;2022-11-15T04:16:02;84.73;;;20.17;;
43070;SDS011;36278;47.952;21.714;2022-11-15T04:18:27;93.77;;;18.97;;
43070;SDS011;36278;47.952;21.714;2022-11-15T04:20:53;80.07;;;18.13;;
43070;SDS011;36278;47.952;21.714;2022-11-15T04:23:37;64.03;;;19.40;;
43070;SDS011;36278;47.952;21.714;2022-11-15T04:26:32;70.27;;;19.03;;
43070;SDS011;36278;47.952;21.714;2022-11-15T04:28:58;65.23;;;19.90;;
43070;SDS011;36278;47.952;21.714;2022-11-15T04:31:42;50.53;;;19.87;;
43070;SDS011;36278;47.952;21.714;2022-11-15T04:34:07;46.57;;;18.33;;
43070;SDS011;36278;47.952;21.714;2022-11-15T04:36:32;88.93;;;19.97;;
43070;SDS011;36278;47.952;21.714;2022-11-15T04:39:17;64.27;;;18.77;;
43070;SDS011;36278;47.952;21.714;2022-11-15T04:41:42;74.00;;;19.50;;
43070;SDS011;36278;47.952;21.714;2022-11-15T04:44:07;84.67;;;18.87;;
43070;SDS011;36278;47.952;21.714;2022-11-15T04:46:33;61.13;;;18.53;;
43070;SDS011;36278;47.952;21.714;2022-11-15T04:48:58;118.00;;;20.90;;
43070;SDS011;36278;47.952;21.714;2022-11-15T04:51:24;61.50;;;19.83;;
43070;SDS011;36278;47.952;21.714;2022-11-15T04:53:49;74.37;;;19.07;;
43070;SDS011;36278;47.952;21.714;2022-11-15T04:56:14;76.47;;;18.53;;
43070;SDS011;36278;47.952;21.714;2022-11-15T04:58:40;63.33;;;19.20;;
43070;SDS011;36278;47.952;21.714;2022-11-15T05:01:06;73.40;;;18.20;;
43070;SDS011;36278;47.952;21.714;2022-11-15T05:03:32;66.97;;;19.30;;
43070;SDS011;36278;47.952;21.714;2022-11-15T05:06:17;64.93;;;18.53;;
43070;SDS011;36278;47.952;21.714;2022-11-15T05:08:42;57.47;;;19.07;;
43070;SDS011;36278;47.952;21.714;2022-11-15T05:11:08;80.07;;;20.07;;
43070;SDS011;36278;47.952;21.714;2022-11-15T05:13:33;78.40;;;19.13;;
43070;SDS011;36278;47.952;21.714;2022-11-15T05:15:59;89.00;;;19.10;;
43070;SDS011;36278;47.952;21.714;2022-11-15T05:18:24;55.70;;;19.87;;
43070;SDS011;36278;47.952;21.714;2022-11-15T05:20:49;85.10;;;18.80;;
43070;SDS011;36278;47.952;21.714;2022-11-15T05:23:15;55.63;;;18.57;;
43070;SDS011;36278;47.952;21.714;2022-11-15T05:25:40;55.23;;;18.50;;
43070;SDS011;36278;47.952;21.714;2022-11-15T05:28:06;58.57;;;20.33;;
43070;SDS011;36278;47.952;21.714;2022-11-15T05:30:31;76.57;;;19.57;;
43070;SDS011;36278;47.952;21.714;2022-11-15T05:32:57;51.93;;;18.50;;
43070;SDS011;36278;47.952;21.714;2022-11-15T05:35:33;71.77;;;19.53;;
43070;SDS011;36278;47.952;21.714;2022-11-15T05:38:03;85.53;;;20.67;;
43070;SDS011;36278;47.952;21.714;2022-11-15T05:40:29;63.87;;;21.50;;
43070;SDS011;36278;47.952;21.714;2022-11-15T05:42:55;70.20;;;19.57;;
43070;SDS011;36278;47.952;21.714;2022-11-15T05:45:21;88.17;;;19.77;;
43070;SDS011;36278;47.952;21.714;2022-11-15T05:47:47;78.63;;;21.93;;
43070;SDS011;36278;47.952;21.714;2022-11-15T05:50:14;79.73;;;20.10;;
43070;SDS011;36278;47.952;21.714;2022-11-15T05:52:42;45.90;;;21.27;;
43070;SDS011;36278;47.952;21.714;2022-11-15T05:55:09;79.37;;;22.67;;
43070;SDS011;36278;47.952;21.714;2022-11-15T05:57:35;66.67;;;20.57;;
43070;SDS011;36278;47.952;21.714;2022-11-15T06:00:01;51.53;;;19.80;;
43070;SDS011;36278;47.952;21.714;2022-11-15T06:02:27;64.13;;;20.43;;
43070;SDS011;36278;47.952;21.714;2022-11-15T06:04:52;33.07;;;20.70;;
43070;SDS011;36278;47.952;21.714;2022-11-15T06:07:18;51.80;;;21.00;;
43070;SDS011;36278;47.952;21.714;2022-11-15T06:09:43;44.73;;;21.60;;
43070;SDS011;36278;47.952;21.714;2022-11-15T06:12:09;61.07;;;21.97;;
43070;SDS011;36278;47.952;21.714;2022-11-15T06:14:34;69.80;;;22.90;;
43070;SDS011;36278;47.952;21.714;2022-11-15T06:16:59;63.07;;;20.50;;
43070;SDS011;36278;47.952;21.714;2022-11-15T06:19:25;49.33;;;22.80;;
43070;SDS011;36278;47.952;21.714;2022-11-15T06:21:50;50.10;;;22.40;;
43070;SDS011;36278;47.952;21.714;2022-11-15T06:24:16;45.37;;;23.93;;
43070;SDS011;36278;47.952;21.714;2022-11-15T06:26:41;61.90;;;22.80;;
43070;SDS011;36278;47.952;21.714;2022-11-15T06:29:06;41.57;;;20.50;;
43070;SDS011;36278;47.952;21.714;2022-11-15T06:31:33;39.10;;;24.03;;
43070;SDS011;36278;47.952;21.714;2022-11-15T06:33:59;35.30;;;26.40;;
43070;SDS011;36278;47.952;21.714;2022-11-15T06:36:24;41.40;;;29.57;;
43070;SDS011;36278;47.952;21.714;2022-11-15T06:38:50;38.50;;;28.17;;
43070;SDS011;36278;47.952;21.714;2022-11-15T06:41:16;46.43;;;26.20;;
43070;SDS011;36278;47.952;21.714;2022-11-15T06:43:41;52.60;;;26.23;;
43070;SDS011;36278;47.952;21.714;2022-11-15T06:46:07;35.03;;;24.30;;
43070;SDS011;36278;47.952;21.714;2022-11-15T06:48:33;56.50;;;23.33;;
43070;SDS011;36278;47.952;21.714;2022-11-15T06:51:00;32.87;;;23.70;;
43070;SDS011;36278;47.952;21.714;2022-11-15T06:53:27;51.53;;;20.47;;
43070;SDS011;36278;47.952;21.714;2022-11-15T06:55:52;31.93;;;20.60;;
43070;SDS011;36278;47.952;21.714;2022-11-15T06:58:18;27.10;;;18.60;;
43070;SDS011;36278;47.952;21.714;2022-11-15T07:00:46;30.03;;;18.43;;
43070;SDS011;36278;47.952;21.714;2022-11-15T07:03:11;31.30;;;18.53;;
43070;SDS011;36278;47.952;21.714;2022-11-15T07:05:37;48.10;;;19.93;;
43070;SDS011;36278;47.952;21.714;2022-11-15T07:08:02;27.27;;;18.53;;
43070;SDS011;36278;47.952;21.714;2022-11-15T07:10:28;26.77;;;18.87;;
43070;SDS011;36278;47.952;21.714;2022-11-15T07:12:54;31.13;;;18.40;;
43070;SDS011;36278;47.952;21.714;2022-11-15T07:15:22;56.40;;;19.13;;
43070;SDS011;36278;47.952;21.714;2022-11-15T07:17:49;62.70;;;18.93;;
43070;SDS011;36278;47.952;21.714;2022-11-15T07:20:15;31.83;;;18.93;;
43070;SDS011;36278;47.952;21.714;2022-11-15T07:22:41;26.97;;;19.10;;
43070;SDS011;36278;47.952;21.714;2022-11-15T07:25:07;29.77;;;19.87;;
43070;SDS011;36278;47.952;21.714;2022-11-15T07:27:33;53.50;;;18.43;;
43070;SDS011;36278;47.952;21.714;2022-11-15T07:29:58;28.23;;;19.33;;
43070;SDS011;36278;47.952;21.714;2022-11-15T07:32:24;30.40;;;18.57;;
43070;SDS011;36278;47.952;21.714;2022-11-15T07:34:50;33.07;;;18.67;;
43070;SDS011;36278;47.952;21.714;2022-11-15T07:37:16;25.70;;;19.07;;
43070;SDS011;36278;47.952;21.714;2022-11-15T07:39:42;32.43;;;19.93;;
43070;SDS011;36278;47.952;21.714;2022-11-15T07:42:08;29.00;;;19.77;;
43070;SDS011;36278;47.952;21.714;2022-11-15T07:44:51;31.20;;;19.80;;
43070;SDS011;36278;47.952;21.714;2022-11-15T07:47:17;25.20;;;19.13;;
43070;SDS011;36278;47.952;21.714;2022-11-15T07:49:42;35.83;;;19.60;;
43070;SDS011;36278;47.952;21.714;2022-11-15T07:52:08;27.90;;;20.47;;
43070;SDS011;36278;47.952;21.714;2022-11-15T07:54:33;24.20;;;18.87;;
43070;SDS011;36278;47.952;21.714;2022-11-15T07:56:59;28.10;;;18.17;;
43070;SDS011;36278;47.952;21.714;2022-11-15T07:59:24;42.90;;;20.60;;
43070;SDS011;36278;47.952;21.714;2022-11-15T08:01:50;33.40;;;21.50;;
43070;SDS011;36278;47.952;21.714;2022-11-15T08:04:15;29.70;;;21.47;;
43070;SDS011;36278;47.952;21.714;2022-11-15T08:06:41;29.17;;;20.47;;
43070;SDS011;36278;47.952;21.714;2022-11-15T08:09:06;33.27;;;23.03;;
43070;SDS011;36278;47.952;21.714;2022-11-15T08:11:32;33.47;;;21.93;;
43070;SDS011;36278;47.952;21.714;2022-11-15T08:13:58;37.37;;;22.20;;
43070;SDS011;36278;47.952;21.714;2022-11-15T08:16:23;34.90;;;22.27;;
43070;SDS011;36278;47.952;21.714;2022-11-15T08:18:49;30.97;;;23.20;;
43070;SDS011;36278;47.952;21.714;2022-11-15T08:21:17;40.67;;;25.07;;
43070;SDS011;36278;47.952;21.714;2022-11-15T08:23:44;37.03;;;23.80;;
43070;SDS011;36278;47.952;21.714;2022-11-15T08:26:10;36.20;;;23.63;;
43070;SDS011;36278;47.952;21.714;2022-11-15T08:28:36;38.10;;;24.93;;
43070;SDS011;36278;47.952;21.714;2022-11-15T08:31:02;36.30;;;24.23;;
43070;SDS011;36278;47.952;21.714;2022-11-15T08:33:29;43.43;;;24.43;;
43070;SDS011;36278;47.952;21.714;2022-11-15T08:35:58;35.43;;;24.10;;
43070;SDS011;36278;47.952;21.714;2022-11-15T08:38:24;37.20;;;24.93;;
43070;SDS011;36278;47.952;21.714;2022-11-15T08:40:51;34.90;;;22.87;;
43070;SDS011;36278;47.952;21.714;2022-11-15T08:43:18;37.37;;;25.87;;
43070;SDS011;36278;47.952;21.714;2022-11-15T08:45:43;36.67;;;25.70;;
43070;SDS011;36278;47.952;21.714;2022-11-15T08:48:10;34.47;;;24.40;;
43070;SDS011;36278;47.952;21.714;2022-11-15T08:50:35;34.13;;;23.60;;
43070;SDS011;36278;47.952;21.714;2022-11-15T08:53:05;37.27;;;23.73;;
43070;SDS011;36278;47.952;21.714;2022-11-15T08:55:35;35.47;;;23.57;;
43070;SDS011;36278;47.952;21.714;2022-11-15T08:58:02;35.90;;;24.20;;
43070;SDS011;36278;47.952;21.714;2022-11-15T09:00:27;31.53;;;24.73;;
43070;SDS011;36278;47.952;21.714;2022-11-15T09:02:52;34.10;;;24.30;;
43070;SDS011;36278;47.952;21.714;2022-11-15T09:05:18;31.77;;;24.63;;
43070;SDS011;36278;47.952;21.714;2022-11-15T09:07:43;33.27;;;24.10;;
43070;SDS011;36278;47.952;21.714;2022-11-15T09:10:09;30.70;;;24.17;;
43070;SDS011;36278;47.952;21.714;2022-11-15T09:12:35;30.30;;;22.53;;
43070;SDS011;36278;47.952;21.714;2022-11-15T09:15:01;28.77;;;22.53;;
43070;SDS011;36278;47.952;21.714;2022-11-15T09:17:26;32.40;;;23.50;;
43070;SDS011;36278;47.952;21.714;2022-11-15T09:19:51;31.33;;;23.33;;
43070;SDS011;36278;47.952;21.714;2022-11-15T09:22:17;33.60;;;23.33;;
43070;SDS011;36278;47.952;21.714;2022-11-15T09:24:43;30.73;;;23.93;;
43070;SDS011;36278;47.952;21.714;2022-11-15T09:27:08;33.73;;;22.90;;
43070;SDS011;36278;47.952;21.714;2022-11-15T09:29:34;28.83;;;22.73;;
43070;SDS011;36278;47.952;21.714;2022-11-15T09:31:59;29.27;;;23.03;;
43070;SDS011;36278;47.952;21.714;2022-11-15T09:34:25;29.57;;;22.77;;
43070;SDS011;36278;47.952;21.714;2022-11-15T09:36:51;29.43;;;22.77;;
43070;SDS011;36278;47.952;21.714;2022-11-15T09:39:19;31.20;;;24.40;;
43070;SDS011;36278;47.952;21.714;2022-11-15T09:44:42;29.97;;;23.33;;
43070;SDS011;36278;47.952;21.714;2022-11-15T09:53:10;31.00;;;23.10;;
43070;SDS011;36278;47.952;21.714;2022-11-15T09:55:46;29.10;;;22.20;;
43070;SDS011;36278;47.952;21.714;2022-11-15T09:58:39;31.50;;;23.70;;
43070;SDS011;36278;47.952;21.714;2022-11-15T10:01:36;31.57;;;25.77;;
43070;SDS011;36278;47.952;21.714;2022-11-15T10:04:09;33.47;;;25.13;;
43070;SDS011;36278;47.952;21.714;2022-11-15T10:06:36;28.47;;;23.03;;
43070;SDS011;36278;47.952;21.714;2022-11-15T10:09:15;31.30;;;24.43;;
43070;SDS011;36278;47.952;21.714;2022-11-15T10:11:46;32.43;;;23.40;;
43070;SDS011;36278;47.952;21.714;2022-11-15T10:14:17;36.07;;;25.93;;
43070;SDS011;36278;47.952;21.714;2022-11-15T10:22:29;28.57;;;23.43;;
43070;SDS011;36278;47.952;21.714;2022-11-15T10:27:41;27.00;;;21.13;;
43070;SDS011;36278;47.952;21.714;2022-11-15T10:30:11;33.93;;;23.83;;
43070;SDS011;36278;47.952;21.714;2022-11-15T10:32:42;32.58;;;23.15;;
43070;SDS011;36278;47.952;21.714;2022-11-15T10:35:16;38.77;;;24.33;;
43070;SDS011;36278;47.952;21.714;2022-11-15T10:38:02;26.92;;;22.23;;
43070;SDS011;36278;47.952;21.714;2022-11-15T10:40:31;26.50;;;22.07;;
43070;SDS011;36278;47.952;21.714;2022-11-15T10:45:34;29.90;;;24.00;;
43070;SDS011;36278;47.952;21.714;2022-11-15T10:50:43;31.87;;;23.00;;
43070;SDS011;36278;47.952;21.714;2022-11-15T10:53:23;25.57;;;22.20;;
43070;SDS011;36278;47.952;21.714;2022-11-15T10:55:57;23.83;;;21.10;;
43070;SDS011;36278;47.952;21.714;2022-11-15T10:58:34;29.57;;;22.93;;
43070;SDS011;36278;47.952;21.714;2022-11-15T11:06:05;29.33;;;21.53;;
43070;SDS011;36278;47.952;21.714;2022-11-15T11:08:33;25.60;;;21.50;;
43070;SDS011;36278;47.952;21.714;2022-11-15T11:10:59;27.10;;;22.07;;
43070;SDS011;36278;47.952;21.714;2022-11-15T11:13:27;27.40;;;21.80;;
43070;SDS011;36278;47.952;21.714;2022-11-15T11:36:50;24.90;;;21.17;;
43070;SDS011;36278;47.952;21.714;2022-11-15T11:41:55;26.40;;;21.40;;
43070;SDS011;36278;47.952;21.714;2022-11-15T11:47:09;27.67;;;20.53;;
43070;SDS011;36278;47.952;21.714;2022-11-15T11:52:38;29.50;;;20.53;;
43070;SDS011;36278;47.952;21.714;2022-11-15T12:00:35;24.80;;;20.17;;
43070;SDS011;36278;47.952;21.714;2022-11-15T12:03:14;26.27;;;21.20;;
43070;SDS011;36278;47.952;21.714;2022-11-15T12:05:59;26.53;;;20.63;;
43070;SDS011;36278;47.952;21.714;2022-11-15T12:13:45;25.47;;;22.10;;
43070;SDS011;36278;47.952;21.714;2022-11-15T12:16:16;30.87;;;22.70;;
43070;SDS011;36278;47.952;21.714;2022-11-15T12:18:48;29.15;;;22.08;;
43070;SDS011;36278;47.952;21.714;2022-11-15T12:21:25;29.07;;;22.03;;
43070;SDS011;36278;47.952;21.714;2022-11-15T12:30:11;28.40;;;23.77;;
43070;SDS011;36278;47.952;21.714;2022-11-15T12:32:39;38.77;;;25.93;;
43070;SDS011;36278;47.952;21.714;2022-11-15T12:35:39;30.20;;;24.30;;
43070;SDS011;36278;47.952;21.714;2022-11-15T12:38:11;30.47;;;23.70;;
43070;SDS011;36278;47.952;21.714;2022-11-15T12:41:24;32.97;;;24.40;;
43070;SDS011;36278;47.952;21.714;2022-11-15T12:43:40;38.47;;;25.40;;
43070;SDS011;36278;47.952;21.714;2022-11-15T12:52:09;33.90;;;25.50;;
43070;SDS011;36278;47.952;21.714;2022-11-15T13:02:19;34.53;;;25.20;;
43070;SDS011;36278;47.952;21.714;2022-11-15T13:17:38;39.37;;;27.90;;
43070;SDS011;36278;47.952;21.714;2022-11-15T13:22:39;37.50;;;27.83;;
43070;SDS011;36278;47.952;21.714;2022-11-15T13:27:56;36.97;;;27.67;;
43070;SDS011;36278;47.952;21.714;2022-11-15T13:30:26;41.07;;;28.73;;
43070;SDS011;36278;47.952;21.714;2022-11-15T13:32:54;41.50;;;28.70;;
43070;SDS011;36278;47.952;21.714;2022-11-15T13:35:22;43.07;;;30.63;;
43070;SDS011;36278;47.952;21.714;2022-11-15T13:37:50;41.83;;;30.60;;
43070;SDS011;36278;47.952;21.714;2022-11-15T13:40:26;50.70;;;31.40;;
43070;SDS011;36278;47.952;21.714;2022-11-15T13:42:56;47.57;;;30.50;;
43070;SDS011;36278;47.952;21.714;2022-11-15T13:45:22;68.53;;;32.53;;
43070;SDS011;36278;47.952;21.714;2022-11-15T13:47:53;52.83;;;31.67;;
43070;SDS011;36278;47.952;21.714;2022-11-15T13:50:21;41.97;;;29.77;;
43070;SDS011;36278;47.952;21.714;2022-11-15T13:52:51;39.90;;;30.43;;
43070;SDS011;36278;47.952;21.714;2022-11-15T13:55:19;39.23;;;30.27;;
43070;SDS011;36278;47.952;21.714;2022-11-15T14:02:50;41.53;;;28.77;;
43070;SDS011;36278;47.952;21.714;2022-11-15T14:07:54;40.30;;;27.20;;
43070;SDS011;36278;47.952;21.714;2022-11-15T14:13:02;38.80;;;26.77;;
43070;SDS011;36278;47.952;21.714;2022-11-15T14:15:35;44.43;;;28.33;;
43070;SDS011;36278;47.952;21.714;2022-11-15T14:18:04;34.20;;;27.97;;
43070;SDS011;36278;47.952;21.714;2022-11-15T14:20:35;32.47;;;27.73;;
43070;SDS011;36278;47.952;21.714;2022-11-15T14:23:19;38.15;;;28.27;;
43070;SDS011;36278;47.952;21.714;2022-11-15T14:25:53;40.13;;;28.10;;
43070;SDS011;36278;47.952;21.714;2022-11-15T14:30:49;42.40;;;28.60;;
43070;SDS011;36278;47.952;21.714;2022-11-15T14:33:23;39.03;;;29.80;;
43070;SDS011;36278;47.952;21.714;2022-11-15T14:35:51;40.03;;;29.03;;
43070;SDS011;36278;47.952;21.714;2022-11-15T14:38:17;37.67;;;28.77;;
43070;SDS011;36278;47.952;21.714;2022-11-15T14:40:44;39.63;;;30.97;;
43070;SDS011;36278;47.952;21.714;2022-11-15T14:43:10;36.77;;;28.83;;
43070;SDS011;36278;47.952;21.714;2022-11-15T14:45:36;39.40;;;30.33;;
43070;SDS011;36278;47.952;21.714;2022-11-15T14:48:02;40.30;;;29.57;;
43070;SDS011;36278;47.952;21.714;2022-11-15T14:50:27;40.60;;;29.80;;
43070;SDS011;36278;47.952;21.714;2022-11-15T14:52:53;40.93;;;32.00;;
43070;SDS011;36278;47.952;21.714;2022-11-15T14:55:20;43.60;;;30.87;;
43070;SDS011;36278;47.952;21.714;2022-11-15T14:57:48;43.63;;;31.87;;
43070;SDS011;36278;47.952;21.714;2022-11-15T15:00:14;44.00;;;32.63;;
43070;SDS011;36278;47.952;21.714;2022-11-15T15:02:41;48.30;;;32.53;;
43070;SDS011;36278;47.952;21.714;2022-11-15T15:05:24;44.53;;;32.00;;
43070;SDS011;36278;47.952;21.714;2022-11-15T15:07:56;43.73;;;32.97;;
43070;SDS011;36278;47.952;21.714;2022-11-15T15:10:22;42.20;;;33.10;;
43070;SDS011;36278;47.952;21.714;2022-11-15T15:12:48;43.87;;;32.03;;
43070;SDS011;36278;47.952;21.714;2022-11-15T15:15:19;45.00;;;33.97;;
43070;SDS011;36278;47.952;21.714;2022-11-15T15:17:49;43.53;;;33.10;;
43070;SDS011;36278;47.952;21.714;2022-11-15T15:20:15;47.00;;;33.20;;
43070;SDS011;36278;47.952;21.714;2022-11-15T15:22:41;48.87;;;34.57;;
43070;SDS011;36278;47.952;21.714;2022-11-15T15:28:01;52.83;;;36.47;;
43070;SDS011;36278;47.952;21.714;2022-11-15T15:30:28;46.93;;;36.27;;
43070;SDS011;36278;47.952;21.714;2022-11-15T15:32:54;49.80;;;36.57;;
43070;SDS011;36278;47.952;21.714;2022-11-15T15:35:20;43.43;;;34.23;;
43070;SDS011;36278;47.952;21.714;2022-11-15T15:37:47;48.73;;;37.13;;
43070;SDS011;36278;47.952;21.714;2022-11-15T15:40:20;53.67;;;39.93;;
43070;SDS011;36278;47.952;21.714;2022-11-15T15:42:47;52.30;;;37.40;;
43070;SDS011;36278;47.952;21.714;2022-11-15T15:45:13;55.30;;;37.53;;
43070;SDS011;36278;47.952;21.714;2022-11-15T15:47:40;49.97;;;36.50;;
43070;SDS011;36278;47.952;21.714;2022-11-15T15:50:39;46.50;;;36.00;;
43070;SDS011;36278;47.952;21.714;2022-11-15T15:52:59;46.57;;;36.43;;
43070;SDS011;36278;47.952;21.714;2022-11-15T15:55:26;49.70;;;37.23;;
43070;SDS011;36278;47.952;21.714;2022-11-15T15:57:52;51.17;;;39.10;;
43070;SDS011;36278;47.952;21.714;2022-11-15T16:00:18;49.20;;;37.20;;
43070;SDS011;36278;47.952;21.714;2022-11-15T16:02:44;52.80;;;38.80;;
43070;SDS011;36278;47.952;21.714;2022-11-15T16:05:10;51.47;;;38.40;;
43070;SDS011;36278;47.952;21.714;2022-11-15T16:07:37;47.40;;;35.60;;
43070;SDS011;36278;47.952;21.714;2022-11-15T16:10:14;46.60;;;35.70;;
43070;SDS011;36278;47.952;21.714;2022-11-15T16:12:47;50.00;;;36.80;;
43070;SDS011;36278;47.952;21.714;2022-11-15T16:15:13;51.43;;;38.67;;
43070;SDS011;36278;47.952;21.714;2022-11-15T16:17:40;50.60;;;37.53;;
43070;SDS011;36278;47.952;21.714;2022-11-15T16:23:14;53.37;;;38.50;;
43070;SDS011;36278;47.952;21.714;2022-11-15T16:30:46;65.20;;;50.57;;
43070;SDS011;36278;47.952;21.714;2022-11-15T16:33:11;67.47;;;51.80;;
43070;SDS011;36278;47.952;21.714;2022-11-15T16:35:37;71.47;;;51.30;;
43070;SDS011;36278;47.952;21.714;2022-11-15T16:38:03;65.50;;;48.07;;
43070;SDS011;36278;47.952;21.714;2022-11-15T16:40:29;68.73;;;50.43;;
43070;SDS011;36278;47.952;21.714;2022-11-15T16:42:57;73.30;;;50.00;;
43070;SDS011;36278;47.952;21.714;2022-11-15T16:45:24;71.10;;;49.90;;
43070;SDS011;36278;47.952;21.714;2022-11-15T16:47:50;64.47;;;48.40;;
43070;SDS011;36278;47.952;21.714;2022-11-15T16:55:20;59.83;;;44.67;;
43070;SDS011;36278;47.952;21.714;2022-11-15T16:57:46;65.53;;;48.10;;